Olympia Regional Airport
KOLM : now visible

Airfield :











YOU CAN JOIN US ON...

 
LOGIN :

Register | Disclaimer

   EN    FR    IT 

 









Legend :    VFR   Marginal VFR   IFR   Intensive IFR   Very Intensive IFR
Visi :
Ceiling :
>= 8 km
>= 3000ft
5 to 8 km
1000 to 3000 ft
1500m to 5 km
500 to 1000 ft
800 to 1500m
200 to 500 ft
< 800m
< 200 ft
Symbols :   Thunderstorms  Fog  Heavy snow  Heavy precipitations  Wind > 20 kt






- Airport Elevation : 209 ft
- IATA code : OLM


KOLM - Olympia Regional

CURRENT METAR :
  • 232254Z 18013G22KT 10SM FEW012 BKN041 OVC060 12/10 A2990 RMK AO2 RAB10E19 SLP124 P0000 T01220100

EXPIRED METARs :
  • 232054Z 19015G21KT 10SM SCT012 BKN033 OVC048 12/11 A2991 RMK AO2 RAE54 SLP130 P0006 60028 T01170106 58009

TAF KOLM
Valid from the 24 at 00:00 until the 25 at 00:00 UTC


232329Z 2400/2424 18012G20KT 6SM -RA BR BKN015 OVC030
FM240900 20011KT 4SM -SHRA OVC015
FM242300 21010G18KT P6SM -SHRA OVC025



MET'MAP, your aeronautical weather chart ! - Copyright ORBIFLY December 2007 - Disclaimer

ORBIFLY MET'MAP TEAM :

Programming & Development : Alexandra Zaïnal
Concept & original design : Baudouin d'Aumeries
Assistance for programming : Marc-Olivier Méhu
Technical & hardware support : Manuel Goepfert

Contact : metmap@orbifly.com




SOURCES & CREDITS :

   NOAA       Earth
Advisory